createdAt,value
2019-02-26T00:02:14.837Z,102330.77
2019-02-26T00:04:49.116Z,102330.33
2019-02-26T00:07:23.433Z,102324.83
2019-02-26T00:09:55.034Z,102325.92
2019-02-26T00:12:26.363Z,102322.84
2019-02-26T00:15:00.226Z,102324.93
2019-02-26T00:17:36.250Z,102320.95
2019-02-26T00:20:10.930Z,102329.63
2019-02-26T00:22:42.143Z,102330.95
2019-02-26T00:25:15.309Z,102335.33
2019-02-26T00:27:47.677Z,102331.30
2019-02-26T00:30:19.963Z,102336.59
2019-02-26T00:32:53.119Z,102337.94
2019-02-26T00:35:25.252Z,102334.03
2019-02-26T00:37:57.333Z,102327.66
2019-02-26T00:40:28.847Z,102317.30
2019-02-26T00:43:02.041Z,102322.98
2019-02-26T00:45:34.152Z,102321.70
2019-02-26T00:48:06.339Z,102312.92
2019-02-26T00:50:39.658Z,102319.67
2019-02-26T00:53:10.654Z,102324.81
2019-02-26T00:55:43.040Z,102321.20
2019-02-26T00:58:14.341Z,102322.89
2019-02-26T01:00:45.806Z,102328.63
2019-02-26T01:03:17.103Z,102327.47
2019-02-26T01:05:48.416Z,102324.87
2019-02-26T01:08:19.971Z,102332.97
2019-02-26T01:10:59.247Z,102332.99
2019-02-26T01:13:32.278Z,102334.23
2019-02-26T01:16:03.689Z,102328.50
2019-02-26T01:18:36.618Z,102333.16
2019-02-26T01:21:08.042Z,102346.56
2019-02-26T01:23:39.286Z,102334.27
2019-02-26T01:26:12.221Z,102327.02
2019-02-26T01:28:46.113Z,102320.48
2019-02-26T01:31:16.758Z,102321.00
2019-02-26T01:33:48.607Z,102310.23
2019-02-26T01:36:23.193Z,102313.66
2019-02-26T01:38:54.343Z,102298.66
2019-02-26T01:41:27.292Z,102293.64
2019-02-26T01:43:58.677Z,102291.83
2019-02-26T01:46:30.486Z,102279.95
2019-02-26T01:49:04.312Z,102289.08
2019-02-26T01:51:35.786Z,102285.25
2019-02-26T01:54:08.181Z,102280.52
2019-02-26T01:56:40.115Z,102278.51
2019-02-26T01:59:12.548Z,102284.05
2019-02-26T02:01:44.704Z,102280.22
2019-02-26T02:04:19.597Z,102278.00
2019-02-26T02:06:51.011Z,102269.75
2019-02-26T02:09:25.034Z,102281.12
2019-02-26T02:11:57.399Z,102278.00
2019-02-26T02:14:29.658Z,102275.88
2019-02-26T02:17:03.278Z,102277.99
2019-02-26T02:19:34.208Z,102279.80
2019-02-26T02:22:06.720Z,102289.86
2019-02-26T02:24:39.243Z,102275.88
2019-02-26T02:27:12.625Z,102276.68
2019-02-26T02:29:46.097Z,102271.34
2019-02-26T02:32:17.295Z,102271.23
2019-02-26T02:34:48.565Z,102269.70
2019-02-26T02:37:24.079Z,102272.22
2019-02-26T02:39:53.035Z,102276.14
2019-02-26T02:42:24.431Z,102275.73
2019-02-26T02:44:55.682Z,102269.59
2019-02-26T02:47:29.909Z,102273.20
2019-02-26T02:50:00.033Z,102266.76
2019-02-26T02:52:33.145Z,102265.84
2019-02-26T02:55:06.888Z,102270.27
2019-02-26T02:57:39.849Z,102269.55
2019-02-26T03:00:14.583Z,102268.22
2019-02-26T03:02:49.742Z,102267.70
2019-02-26T03:05:20.752Z,102257.33
2019-02-26T03:07:54.034Z,102257.01
2019-02-26T03:10:28.444Z,102260.72
2019-02-26T03:13:00.328Z,102266.73
2019-02-26T03:15:33.742Z,102264.42
2019-02-26T03:18:06.601Z,102265.75
2019-02-26T03:20:40.216Z,102266.36
2019-02-26T03:23:15.767Z,102272.28
2019-02-26T03:25:47.198Z,102267.22
2019-02-26T03:28:18.247Z,102260.52
2019-02-26T03:30:49.520Z,102264.41
2019-02-26T03:33:20.849Z,102267.84
2019-02-26T03:35:52.265Z,102259.56
2019-02-26T03:38:26.133Z,102260.27
2019-02-26T03:40:59.088Z,102263.88
2019-02-26T03:43:31.521Z,102260.69
2019-02-26T03:46:02.665Z,102258.69
2019-02-26T03:48:34.081Z,102261.41
2019-02-26T03:51:05.520Z,102252.75
2019-02-26T03:53:39.030Z,102257.80
2019-02-26T03:56:12.541Z,102252.33
2019-02-26T03:58:43.531Z,102249.98
2019-02-26T04:01:18.322Z,102245.62
2019-02-26T04:03:49.161Z,102237.36
2019-02-26T04:06:21.516Z,102240.30
2019-02-26T04:08:55.339Z,102247.84
2019-02-26T04:11:27.763Z,102246.78
2019-02-26T04:14:00.024Z,102240.28
2019-02-26T04:16:32.463Z,102233.76
2019-02-26T04:19:05.855Z,102238.69
2019-02-26T04:22:33.312Z,102236.23
2019-02-26T04:25:33.925Z,102240.33
2019-02-26T04:28:30.658Z,102241.02
2019-02-26T04:31:05.672Z,102236.67
2019-02-26T04:34:08.432Z,102234.61
2019-02-26T04:37:04.657Z,102227.58
2019-02-26T04:39:44.374Z,102217.89
2019-02-26T04:42:40.992Z,102218.21
2019-02-26T04:45:32.302Z,102218.52
2019-02-26T04:48:17.140Z,102219.50
2019-02-26T04:50:47.222Z,102209.41
2019-02-26T04:53:18.616Z,102209.41
2019-02-26T04:55:49.977Z,102210.60
2019-02-26T04:58:22.681Z,102206.19
2019-02-26T05:00:54.271Z,102208.50
2019-02-26T05:03:25.627Z,102212.30
2019-02-26T05:05:59.535Z,102204.75
2019-02-26T05:08:32.162Z,102206.89
2019-02-26T05:11:02.960Z,102208.77
2019-02-26T05:13:34.669Z,102202.08
2019-02-26T05:16:06.180Z,102198.84
2019-02-26T05:18:37.517Z,102201.85
2019-02-26T05:21:10.851Z,102200.62
2019-02-26T05:23:41.936Z,102202.89
2019-02-26T05:26:15.105Z,102204.08
2019-02-26T05:28:49.677Z,102211.51
2019-02-26T05:31:21.466Z,102212.64
2019-02-26T05:33:55.340Z,102210.94
2019-02-26T05:36:28.139Z,102214.23
2019-02-26T05:39:00.349Z,102213.83
2019-02-26T05:41:33.651Z,102211.11
2019-02-26T05:44:08.353Z,102214.34
2019-02-26T05:46:38.210Z,102219.05
2019-02-26T05:49:13.259Z,102215.15
2019-02-26T05:51:42.812Z,102217.42
2019-02-26T05:54:17.455Z,102219.58
2019-02-26T05:56:49.802Z,102223.31
2019-02-26T05:59:21.804Z,102224.23
2019-02-26T06:01:55.894Z,102230.06
2019-02-26T06:04:27.383Z,102234.82
2019-02-26T06:06:59.893Z,102226.89
2019-02-26T06:09:33.815Z,102236.75
2019-02-26T06:12:04.913Z,102234.54
2019-02-26T06:14:39.172Z,102239.92
2019-02-26T06:17:10.509Z,102244.91
2019-02-26T06:19:52.390Z,102249.16
2019-02-26T06:22:26.487Z,102254.83
2019-02-26T06:24:59.555Z,102253.87
2019-02-26T06:27:29.724Z,102243.67
2019-02-26T06:30:05.906Z,102242.08
2019-02-26T06:32:37.065Z,102241.91
2019-02-26T06:35:16.271Z,102243.61
2019-02-26T06:37:47.312Z,102244.97
2019-02-26T06:40:18.926Z,102251.38
2019-02-26T06:42:50.359Z,102261.41
2019-02-26T06:45:21.656Z,102266.80
2019-02-26T06:47:54.599Z,102271.33
2019-02-26T06:50:26.033Z,102268.78
2019-02-26T06:52:57.309Z,102275.36
2019-02-26T06:55:28.568Z,102276.95
2019-02-26T06:58:21.569Z,102277.56
2019-02-26T07:00:55.341Z,102289.13
2019-02-26T07:03:26.121Z,102286.92
2019-02-26T07:05:59.683Z,102289.02
2019-02-26T07:08:31.026Z,102294.23
2019-02-26T07:11:04.004Z,102307.56
2019-02-26T07:13:38.590Z,102306.77
2019-02-26T07:16:09.714Z,102311.81
2019-02-26T07:18:41.096Z,102309.03
2019-02-26T07:21:12.396Z,102299.62
2019-02-26T07:23:43.718Z,102308.19
2019-02-26T07:26:16.072Z,102307.84
2019-02-26T07:28:48.741Z,102311.24
2019-02-26T07:31:21.113Z,102317.24
2019-02-26T07:33:55.759Z,102311.67
2019-02-26T07:36:28.146Z,102321.87
2019-02-26T07:38:59.646Z,102313.91
2019-02-26T07:41:30.972Z,102309.64
2019-02-26T07:44:02.405Z,102305.76
2019-02-26T07:46:35.571Z,102301.59
2019-02-26T07:49:07.487Z,102306.88
2019-02-26T07:51:40.550Z,102298.59
2019-02-26T07:54:12.042Z,102301.75
2019-02-26T07:56:43.334Z,102302.28
2019-02-26T07:59:15.949Z,102305.93
2019-02-26T08:01:49.558Z,102305.07
2019-02-26T08:04:20.393Z,102302.47
2019-02-26T08:06:54.998Z,102302.59
2019-02-26T08:09:25.185Z,102302.92
2019-02-26T08:11:56.541Z,102296.70
2019-02-26T08:14:27.843Z,102297.02
2019-02-26T08:17:01.306Z,102292.00
2019-02-26T08:19:34.430Z,102293.20
2019-02-26T08:22:05.294Z,102285.97
2019-02-26T08:24:36.695Z,102281.00
2019-02-26T08:27:08.535Z,102276.04
2019-02-26T08:29:40.787Z,102278.01
2019-02-26T08:32:15.890Z,102274.93
2019-02-26T08:34:45.061Z,102274.78
2019-02-26T08:37:16.580Z,102264.33
2019-02-26T08:39:47.839Z,102267.69
2019-02-26T08:42:19.174Z,102262.00
2019-02-26T08:44:51.220Z,102261.14
2019-02-26T08:47:23.669Z,102257.61
2019-02-26T08:49:54.995Z,102254.61
2019-02-26T08:52:27.585Z,102252.93
2019-02-26T08:54:59.389Z,102250.87
2019-02-26T08:57:30.720Z,102254.25
2019-02-26T09:00:02.133Z,102246.98
2019-02-26T09:02:34.035Z,102242.33
2019-02-26T09:05:09.344Z,102245.80
2019-02-26T09:07:42.702Z,102238.85
2019-02-26T09:10:22.642Z,102238.77
2019-02-26T09:12:52.243Z,102246.64
2019-02-26T09:15:23.955Z,102249.02
2019-02-26T09:17:55.246Z,102244.64
2019-02-26T09:20:26.928Z,102245.04
2019-02-26T09:22:59.537Z,102246.80
2019-02-26T09:25:33.974Z,102249.45
2019-02-26T09:28:05.597Z,102246.05
2019-02-26T09:30:38.862Z,102250.93
2019-02-26T09:33:11.079Z,102252.66
2019-02-26T09:35:42.542Z,102248.27
2019-02-26T09:38:15.141Z,102247.37
2019-02-26T09:40:48.226Z,102235.56
2019-02-26T09:43:22.036Z,102236.91
2019-02-26T09:45:53.210Z,102233.58
2019-02-26T09:48:24.554Z,102232.32
2019-02-26T09:50:55.958Z,102239.45
2019-02-26T09:53:27.282Z,102235.97
2019-02-26T09:55:58.685Z,102248.20
2019-02-26T09:58:30.019Z,102252.16
2019-02-26T10:01:01.294Z,102249.34
2019-02-26T10:03:36.747Z,102245.94
2019-02-26T10:06:05.849Z,102249.12
2019-02-26T10:08:37.179Z,102245.89
2019-02-26T10:11:08.518Z,102248.39
2019-02-26T10:13:41.922Z,102244.72
2019-02-26T10:16:12.941Z,102245.73
2019-02-26T10:18:45.024Z,102243.39
2019-02-26T10:21:19.848Z,102235.84
2019-02-26T10:23:52.133Z,102232.89
2019-02-26T10:26:26.110Z,102232.28
2019-02-26T10:29:03.443Z,102226.37
2019-02-26T10:31:29.945Z,102227.98
2019-02-26T10:34:03.070Z,102230.65
2019-02-26T10:36:36.392Z,102236.27
2019-02-26T10:39:08.577Z,102242.91
2019-02-26T10:41:42.327Z,102241.66
2019-02-26T10:44:14.814Z,102243.45
2019-02-26T10:46:46.337Z,102235.55
2019-02-26T10:49:17.677Z,102234.31
2019-02-26T10:51:49.154Z,102234.94
2019-02-26T10:54:20.434Z,102235.43
2019-02-26T10:56:51.763Z,102235.11
2019-02-26T10:59:23.601Z,102235.06
2019-02-26T11:01:57.261Z,102232.73
2019-02-26T11:04:34.700Z,102230.91
2019-02-26T11:07:08.454Z,102229.95
2019-02-26T11:09:37.327Z,102233.25
2019-02-26T11:12:08.766Z,102229.41
2019-02-26T11:14:41.962Z,102223.23
2019-02-26T11:17:15.819Z,102217.77
2019-02-26T11:19:47.967Z,102220.31
2019-02-26T11:22:21.355Z,102223.80
2019-02-26T11:24:53.484Z,102229.55
2019-02-26T11:27:25.526Z,102228.70
2019-02-26T11:29:57.802Z,102225.98
2019-02-26T11:32:30.628Z,102227.42
2019-02-26T11:35:03.138Z,102214.50
2019-02-26T11:37:34.406Z,102212.98
2019-02-26T11:40:12.872Z,102214.14
2019-02-26T11:42:46.259Z,102214.11
2019-02-26T11:45:23.275Z,102214.05
2019-02-26T11:47:55.805Z,102207.20
2019-02-26T11:50:28.528Z,102206.19
2019-02-26T11:53:00.665Z,102199.42
2019-02-26T11:55:34.352Z,102200.05
2019-02-26T11:58:07.726Z,102183.93
2019-02-26T12:00:52.273Z,102185.09
2019-02-26T12:03:27.252Z,102182.25
2019-02-26T12:05:59.096Z,102180.13
2019-02-26T12:08:29.848Z,102180.69
2019-02-26T12:11:04.054Z,102172.98
2019-02-26T12:13:34.472Z,102180.73
2019-02-26T12:16:06.008Z,102179.59
2019-02-26T12:18:39.127Z,102177.53
2019-02-26T12:21:12.899Z,102177.30
2019-02-26T12:23:46.648Z,102169.81
2019-02-26T12:26:19.317Z,102165.95
2019-02-26T12:28:52.376Z,102164.73
2019-02-26T12:31:25.271Z,102166.41
2019-02-26T12:33:56.991Z,102162.91
2019-02-26T12:36:29.846Z,102153.67
2019-02-26T12:39:02.439Z,102148.01
2019-02-26T12:41:36.569Z,102145.54
2019-02-26T12:44:12.968Z,102143.03
2019-02-26T12:46:41.738Z,102143.54
2019-02-26T12:49:16.025Z,102141.84
2019-02-26T12:51:47.606Z,102136.98
2019-02-26T12:54:19.291Z,102136.99
2019-02-26T12:56:52.324Z,102123.59
2019-02-26T12:59:23.670Z,102123.62
2019-02-26T13:01:55.151Z,102122.19
2019-02-26T13:04:26.435Z,102117.77
2019-02-26T13:06:57.931Z,102114.79
2019-02-26T13:09:29.266Z,102110.84
2019-02-26T13:12:02.784Z,102108.26
2019-02-26T13:14:33.735Z,102105.52
2019-02-26T13:17:06.291Z,102101.50
2019-02-26T13:19:37.627Z,102097.11
2019-02-26T13:22:12.846Z,102099.36
2019-02-26T13:24:42.092Z,102095.34
2019-02-26T13:27:13.549Z,102091.30
2019-02-26T13:29:53.670Z,102089.07
2019-02-26T13:32:21.042Z,102081.03
2019-02-26T13:34:52.522Z,102080.14
2019-02-26T13:37:26.397Z,102078.36
2019-02-26T13:39:57.163Z,102074.34
2019-02-26T13:42:28.717Z,102064.95
2019-02-26T13:45:00.177Z,102063.14
2019-02-26T13:47:31.649Z,102060.48
2019-02-26T13:50:03.064Z,102060.94
2019-02-26T13:52:35.699Z,102057.74
2019-02-26T13:55:10.551Z,102053.66
2019-02-26T13:57:41.997Z,102052.28
2019-02-26T14:00:15.496Z,102044.16
2019-02-26T14:02:47.101Z,102040.95
2019-02-26T14:05:26.733Z,102039.64
2019-02-26T14:07:58.284Z,102041.02
2019-02-26T14:10:29.612Z,102033.32
2019-02-26T14:13:01.026Z,102031.42
2019-02-26T14:15:32.807Z,102027.80
2019-02-26T14:18:04.479Z,102024.22
2019-02-26T14:20:35.790Z,102023.33
2019-02-26T14:23:07.235Z,102017.85
2019-02-26T14:25:38.580Z,102023.27
2019-02-26T14:28:10.062Z,102015.55
2019-02-26T14:30:41.466Z,102018.38
2019-02-26T14:33:12.856Z,102011.98
2019-02-26T14:35:44.168Z,102010.63
2019-02-26T14:38:15.561Z,102006.23
2019-02-26T14:40:46.987Z,102009.75
2019-02-26T14:43:18.438Z,102007.13
2019-02-26T14:45:49.708Z,101999.12
2019-02-26T14:48:21.099Z,101996.05
2019-02-26T14:50:52.511Z,101998.77
2019-02-26T14:53:23.910Z,101988.38
2019-02-26T14:55:55.253Z,101988.45
2019-02-26T14:58:26.664Z,101978.48
2019-02-26T15:01:00.270Z,101976.59
2019-02-26T15:03:32.710Z,101978.75
2019-02-26T15:06:03.985Z,101968.78
2019-02-26T15:08:36.646Z,101972.31
2019-02-26T15:11:08.003Z,101967.69
2019-02-26T15:13:39.327Z,101962.34
2019-02-26T15:16:10.675Z,101958.77
2019-02-26T15:18:41.967Z,101958.27
2019-02-26T15:21:13.321Z,101963.20
2019-02-26T15:23:44.738Z,101956.18
2019-02-26T15:26:16.218Z,101951.30
2019-02-26T15:28:49.028Z,101946.80
2019-02-26T15:31:20.606Z,101950.84
2019-02-26T15:33:52.001Z,101951.89
2019-02-26T15:36:24.499Z,101951.11
2019-02-26T15:38:55.783Z,101953.05
2019-02-26T15:41:27.207Z,101943.73
2019-02-26T15:43:58.493Z,101943.74
2019-02-26T15:46:30.891Z,101940.60
2019-02-26T15:49:02.899Z,101933.61
2019-02-26T15:51:34.309Z,101936.72
2019-02-26T15:54:05.679Z,101935.80
2019-02-26T15:56:37.107Z,101934.93
2019-02-26T15:59:08.694Z,101929.16
2019-02-26T16:01:40.298Z,101935.52
2019-02-26T16:04:11.901Z,101934.23
2019-02-26T16:06:43.320Z,101928.86
2019-02-26T16:09:15.493Z,101928.91
2019-02-26T16:11:47.060Z,101927.61
2019-02-26T16:14:18.477Z,101924.54
2019-02-26T16:16:49.848Z,101926.83
2019-02-26T16:19:21.376Z,101930.41
2019-02-26T16:21:52.796Z,101926.38
2019-02-26T16:24:24.092Z,101925.95
2019-02-26T16:27:07.089Z,101924.63
2019-02-26T16:29:38.927Z,101921.98
2019-02-26T16:32:10.363Z,101924.23
2019-02-26T16:34:43.222Z,101913.48
2019-02-26T16:37:14.714Z,101916.16
2019-02-26T16:39:46.197Z,101919.67
2019-02-26T16:42:17.649Z,101924.11
2019-02-26T16:44:49.057Z,101928.98
2019-02-26T16:47:20.424Z,101924.95
2019-02-26T16:49:52.043Z,101937.34
2019-02-26T16:52:27.358Z,101927.95
2019-02-26T16:54:56.532Z,101930.16
2019-02-26T16:57:28.260Z,101930.11
2019-02-26T17:00:00.544Z,101934.07
2019-02-26T17:02:33.487Z,101930.00
2019-02-26T17:05:07.481Z,101927.69
2019-02-26T17:07:39.042Z,101926.65
2019-02-26T17:10:17.721Z,101926.53
2019-02-26T17:12:56.130Z,101928.98
2019-02-26T17:15:35.242Z,101923.11
2019-02-26T17:18:09.597Z,101933.06
2019-02-26T17:20:40.248Z,101935.98
2019-02-26T17:23:14.020Z,101938.48
2019-02-26T17:25:45.946Z,101941.69
2019-02-26T17:28:17.472Z,101949.48
2019-02-26T17:30:48.776Z,101934.63
2019-02-26T17:33:20.255Z,101943.72
2019-02-26T17:35:52.949Z,101947.63
2019-02-26T17:38:26.008Z,101950.17
2019-02-26T17:40:57.627Z,101949.11
2019-02-26T17:43:29.157Z,101944.92
2019-02-26T17:46:02.454Z,101948.33
2019-02-26T17:48:43.291Z,101952.91
2019-02-26T17:51:07.323Z,101950.81
2019-02-26T17:53:40.714Z,101950.09
2019-02-26T17:56:12.292Z,101950.88
2019-02-26T17:58:45.494Z,101954.11
2019-02-26T18:01:16.991Z,101950.34
2019-02-26T18:03:52.789Z,101947.96
2019-02-26T18:06:36.433Z,101946.91
2019-02-26T18:09:21.555Z,101952.97
2019-02-26T18:11:55.010Z,101946.59
2019-02-26T18:14:47.307Z,101949.16
2019-02-26T18:17:26.670Z,101943.11
2019-02-26T18:20:08.899Z,101950.48
2019-02-26T18:22:43.472Z,101946.16
2019-02-26T18:25:22.985Z,101941.06
2019-02-26T18:28:08.858Z,101936.47
2019-02-26T18:30:40.133Z,101939.95
2019-02-26T18:33:11.702Z,101934.03
2019-02-26T18:35:43.321Z,101933.49
2019-02-26T18:38:14.936Z,101930.66
2019-02-26T18:40:46.438Z,101928.32
2019-02-26T18:43:19.027Z,101926.84
2019-02-26T18:45:50.684Z,101920.02
2019-02-26T18:48:22.220Z,101924.70
2019-02-26T18:50:53.658Z,101928.93
2019-02-26T18:53:25.008Z,101928.77
2019-02-26T18:55:56.388Z,101919.68
2019-02-26T18:58:27.928Z,101923.97
2019-02-26T19:00:59.610Z,101929.55
2019-02-26T19:03:31.170Z,101922.75
2019-02-26T19:06:03.645Z,101926.95
2019-02-26T19:08:39.180Z,101925.67
2019-02-26T19:11:09.023Z,101921.37
2019-02-26T19:13:41.553Z,101926.51
2019-02-26T19:16:13.027Z,101919.33
2019-02-26T19:18:44.687Z,101921.08
2019-02-26T19:21:16.884Z,101923.26
2019-02-26T19:23:48.540Z,101928.05
2019-02-26T19:26:20.155Z,101931.45
2019-02-26T19:28:51.495Z,101935.93
2019-02-26T19:31:23.597Z,101943.09
2019-02-26T19:33:56.228Z,101943.14
2019-02-26T19:36:27.787Z,101936.16
2019-02-26T19:39:00.963Z,101941.80
2019-02-26T19:41:34.053Z,101935.96
2019-02-26T19:44:05.700Z,101941.41
2019-02-26T19:46:37.227Z,101937.28
2019-02-26T19:49:08.906Z,101935.77
2019-02-26T19:51:40.975Z,101935.72
2019-02-26T19:54:12.572Z,101937.09
2019-02-26T19:56:44.258Z,101947.61
2019-02-26T19:59:15.816Z,101943.97
2019-02-26T20:01:47.497Z,101938.26
2019-02-26T20:04:19.076Z,101944.02
2019-02-26T20:06:50.688Z,101943.48
2019-02-26T20:09:23.007Z,101944.20
2019-02-26T20:11:56.244Z,101942.38
2019-02-26T20:14:28.134Z,101942.94
2019-02-26T20:17:04.957Z,101945.53
2019-02-26T20:19:34.017Z,101940.50
2019-02-26T20:22:05.398Z,101938.64
2019-02-26T20:24:37.870Z,101945.30
2019-02-26T20:27:12.021Z,101945.07
2019-02-26T20:29:43.459Z,101936.92
2019-02-26T20:32:16.139Z,101931.95
2019-02-26T20:34:47.568Z,101936.94
2019-02-26T20:37:18.902Z,101939.22
2019-02-26T20:39:50.223Z,101936.80
2019-02-26T20:42:23.641Z,101934.34
2019-02-26T20:44:58.932Z,101931.16
2019-02-26T20:47:31.644Z,101934.09
2019-02-26T20:50:02.659Z,101925.27
2019-02-26T20:52:34.796Z,101925.32
2019-02-26T20:55:25.331Z,101926.75
2019-02-26T20:57:57.801Z,101924.41
2019-02-26T21:00:32.342Z,101919.13
2019-02-26T21:03:03.791Z,101923.09
2019-02-26T21:05:35.625Z,101922.06
2019-02-26T21:08:07.056Z,101919.78
2019-02-26T21:10:38.669Z,101917.73
2019-02-26T21:13:10.073Z,101919.09
2019-02-26T21:15:41.813Z,101922.91
2019-02-26T21:18:13.284Z,101913.98
2019-02-26T21:20:47.001Z,101911.85
2019-02-26T21:23:18.224Z,101911.33
2019-02-26T21:25:49.926Z,101911.41
2019-02-26T21:28:24.260Z,101913.41
2019-02-26T21:30:55.823Z,101911.28
2019-02-26T21:33:30.616Z,101908.44
2019-02-26T21:36:00.277Z,101906.02
2019-02-26T21:38:31.521Z,101907.96
2019-02-26T21:41:02.914Z,101906.16
2019-02-26T21:43:35.448Z,101904.98
2019-02-26T21:46:06.985Z,101911.42
2019-02-26T21:48:38.466Z,101907.95
2019-02-26T21:51:10.003Z,101901.93
2019-02-26T21:53:41.432Z,101903.52
2019-02-26T21:56:15.448Z,101901.99
2019-02-26T21:58:45.809Z,101903.85
2019-02-26T22:01:17.224Z,101907.58
2019-02-26T22:03:48.796Z,101910.97
2019-02-26T22:06:20.290Z,101908.75
2019-02-26T22:08:51.741Z,101914.57
2019-02-26T22:11:23.015Z,101918.52
2019-02-26T22:13:54.582Z,101908.53
2019-02-26T22:16:26.077Z,101906.93
2019-02-26T22:18:58.271Z,101901.72
2019-02-26T22:21:31.326Z,101901.77
2019-02-26T22:24:04.647Z,101909.23
2019-02-26T22:26:35.848Z,101907.22
2019-02-26T22:29:09.327Z,101914.61
2019-02-26T22:31:40.667Z,101904.10
2019-02-26T22:34:12.034Z,101911.13
2019-02-26T22:36:43.298Z,101914.32
2019-02-26T22:39:15.066Z,101906.20
2019-02-26T22:41:46.492Z,101901.70
2019-02-26T22:44:18.645Z,101905.23
2019-02-26T22:46:51.012Z,101900.91
2019-02-26T22:49:22.553Z,101908.56
2019-02-26T22:51:53.898Z,101906.12
2019-02-26T22:54:25.205Z,101904.22
2019-02-26T22:56:56.969Z,101904.32
2019-02-26T22:59:28.854Z,101904.42
2019-02-26T23:02:00.431Z,101907.98
2019-02-26T23:04:35.017Z,101912.77
2019-02-26T23:07:06.412Z,101910.73
2019-02-26T23:09:38.789Z,101903.99
2019-02-26T23:12:11.770Z,101908.10
2019-02-26T23:14:44.504Z,101905.16
2019-02-26T23:17:15.972Z,101905.66
2019-02-26T23:19:47.331Z,101904.11
2019-02-26T23:22:20.935Z,101905.17
2019-02-26T23:24:53.415Z,101899.19
2019-02-26T23:27:24.812Z,101900.52
2019-02-26T23:29:56.536Z,101900.59
2019-02-26T23:32:28.617Z,101899.04
2019-02-26T23:35:14.766Z,101896.99
2019-02-26T23:37:46.243Z,101896.75
2019-02-26T23:40:18.588Z,101898.72
2019-02-26T23:42:50.205Z,101888.70
2019-02-26T23:45:23.974Z,101893.63
2019-02-26T23:47:54.784Z,101886.91
2019-02-26T23:50:26.192Z,101892.65
2019-02-26T23:53:00.780Z,101891.42
2019-02-26T23:55:30.941Z,101891.71
2019-02-26T23:58:02.320Z,101890.64
